sensor_id;sensor_type;location;lat;lon;timestamp;P1;durP1;ratioP1;P2;durP2;ratioP2
21837;SDS011;11081;45.946;6.140;2023-09-07T00:01:51;7.53;;;4.65;;
21837;SDS011;11081;45.946;6.140;2023-09-07T00:04:19;6.55;;;4.45;;
21837;SDS011;11081;45.946;6.140;2023-09-07T00:06:50;6.20;;;4.45;;
21837;SDS011;11081;45.946;6.140;2023-09-07T00:09:18;7.07;;;5.28;;
21837;SDS011;11081;45.946;6.140;2023-09-07T00:11:48;8.27;;;4.82;;
21837;SDS011;11081;45.946;6.140;2023-09-07T00:14:16;5.25;;;4.45;;
21837;SDS011;11081;45.946;6.140;2023-09-07T00:16:44;5.95;;;4.72;;
21837;SDS011;11081;45.946;6.140;2023-09-07T00:19:12;10.60;;;5.13;;
21837;SDS011;11081;45.946;6.140;2023-09-07T00:21:40;11.30;;;5.07;;
21837;SDS011;11081;45.946;6.140;2023-09-07T00:24:10;11.48;;;4.93;;
21837;SDS011;11081;45.946;6.140;2023-09-07T00:26:38;5.90;;;4.57;;
21837;SDS011;11081;45.946;6.140;2023-09-07T00:29:06;11.88;;;5.45;;
21837;SDS011;11081;45.946;6.140;2023-09-07T00:31:34;6.25;;;4.95;;
21837;SDS011;11081;45.946;6.140;2023-09-07T00:34:02;7.18;;;4.85;;
21837;SDS011;11081;45.946;6.140;2023-09-07T00:36:30;5.60;;;4.43;;
21837;SDS011;11081;45.946;6.140;2023-09-07T00:38:58;6.50;;;4.95;;
21837;SDS011;11081;45.946;6.140;2023-09-07T00:41:28;5.55;;;4.78;;
21837;SDS011;11081;45.946;6.140;2023-09-07T00:43:56;9.18;;;5.30;;
21837;SDS011;11081;45.946;6.140;2023-09-07T00:46:24;9.95;;;5.35;;
21837;SDS011;11081;45.946;6.140;2023-09-07T00:48:52;6.82;;;5.28;;
21837;SDS011;11081;45.946;6.140;2023-09-07T00:51:20;5.88;;;4.72;;
21837;SDS011;11081;45.946;6.140;2023-09-07T00:53:48;8.27;;;4.72;;
21837;SDS011;11081;45.946;6.140;2023-09-07T00:56:17;8.75;;;5.15;;
21837;SDS011;11081;45.946;6.140;2023-09-07T00:58:47;9.07;;;5.15;;
21837;SDS011;11081;45.946;6.140;2023-09-07T01:01:15;5.65;;;4.93;;
21837;SDS011;11081;45.946;6.140;2023-09-07T01:03:44;6.68;;;5.07;;
21837;SDS011;11081;45.946;6.140;2023-09-07T01:06:13;10.00;;;5.68;;
21837;SDS011;11081;45.946;6.140;2023-09-07T01:08:46;9.18;;;5.25;;
21837;SDS011;11081;45.946;6.140;2023-09-07T01:11:18;9.35;;;4.32;;
21837;SDS011;11081;45.946;6.140;2023-09-07T01:13:51;10.55;;;5.20;;
21837;SDS011;11081;45.946;6.140;2023-09-07T01:16:20;7.30;;;4.53;;
21837;SDS011;11081;45.946;6.140;2023-09-07T01:18:51;5.95;;;4.60;;
21837;SDS011;11081;45.946;6.140;2023-09-07T01:21:19;10.30;;;5.22;;
21837;SDS011;11081;45.946;6.140;2023-09-07T01:23:51;6.90;;;4.72;;
21837;SDS011;11081;45.946;6.140;2023-09-07T01:26:19;7.32;;;4.93;;
21837;SDS011;11081;45.946;6.140;2023-09-07T01:28:47;8.13;;;4.70;;
21837;SDS011;11081;45.946;6.140;2023-09-07T01:31:16;6.40;;;4.82;;
21837;SDS011;11081;45.946;6.140;2023-09-07T01:33:45;5.10;;;4.53;;
21837;SDS011;11081;45.946;6.140;2023-09-07T01:36:13;8.23;;;5.10;;
21837;SDS011;11081;45.946;6.140;2023-09-07T01:38:41;7.82;;;5.03;;
21837;SDS011;11081;45.946;6.140;2023-09-07T01:41:11;8.40;;;5.05;;
21837;SDS011;11081;45.946;6.140;2023-09-07T01:43:39;9.50;;;4.97;;
21837;SDS011;11081;45.946;6.140;2023-09-07T01:46:07;10.35;;;4.88;;
21837;SDS011;11081;45.946;6.140;2023-09-07T01:48:36;8.48;;;4.70;;
21837;SDS011;11081;45.946;6.140;2023-09-07T01:51:04;5.88;;;4.90;;
21837;SDS011;11081;45.946;6.140;2023-09-07T01:53:32;6.18;;;4.40;;
21837;SDS011;11081;45.946;6.140;2023-09-07T01:56:00;5.97;;;4.82;;
21837;SDS011;11081;45.946;6.140;2023-09-07T01:58:29;7.88;;;5.10;;
21837;SDS011;11081;45.946;6.140;2023-09-07T02:00:58;6.53;;;4.90;;
21837;SDS011;11081;45.946;6.140;2023-09-07T02:03:27;8.75;;;4.63;;
21837;SDS011;11081;45.946;6.140;2023-09-07T02:05:55;9.45;;;4.95;;
21837;SDS011;11081;45.946;6.140;2023-09-07T02:08:23;6.78;;;5.30;;
21837;SDS011;11081;45.946;6.140;2023-09-07T02:10:51;7.65;;;5.07;;
21837;SDS011;11081;45.946;6.140;2023-09-07T02:13:19;7.32;;;5.05;;
21837;SDS011;11081;45.946;6.140;2023-09-07T02:15:48;5.97;;;4.88;;
21837;SDS011;11081;45.946;6.140;2023-09-07T02:18:16;6.95;;;4.85;;
21837;SDS011;11081;45.946;6.140;2023-09-07T02:20:44;7.57;;;5.18;;
21837;SDS011;11081;45.946;6.140;2023-09-07T02:23:13;8.05;;;5.07;;
21837;SDS011;11081;45.946;6.140;2023-09-07T02:25:41;7.28;;;5.20;;
21837;SDS011;11081;45.946;6.140;2023-09-07T02:28:09;8.18;;;5.32;;
21837;SDS011;11081;45.946;6.140;2023-09-07T02:30:37;6.70;;;5.30;;
21837;SDS011;11081;45.946;6.140;2023-09-07T02:33:08;6.03;;;4.75;;
21837;SDS011;11081;45.946;6.140;2023-09-07T02:35:36;7.53;;;5.03;;
21837;SDS011;11081;45.946;6.140;2023-09-07T02:38:04;7.78;;;5.60;;
21837;SDS011;11081;45.946;6.140;2023-09-07T02:40:33;6.22;;;4.65;;
21837;SDS011;11081;45.946;6.140;2023-09-07T02:43:07;8.65;;;5.18;;
21837;SDS011;11081;45.946;6.140;2023-09-07T02:45:35;6.00;;;5.05;;
21837;SDS011;11081;45.946;6.140;2023-09-07T02:48:04;7.93;;;5.20;;
21837;SDS011;11081;45.946;6.140;2023-09-07T02:50:36;11.02;;;5.57;;
21837;SDS011;11081;45.946;6.140;2023-09-07T02:53:04;7.22;;;4.88;;
21837;SDS011;11081;45.946;6.140;2023-09-07T02:55:33;7.40;;;4.88;;
21837;SDS011;11081;45.946;6.140;2023-09-07T02:58:02;6.65;;;5.28;;
21837;SDS011;11081;45.946;6.140;2023-09-07T03:00:31;9.82;;;5.80;;
21837;SDS011;11081;45.946;6.140;2023-09-07T03:02:59;8.05;;;5.45;;
21837;SDS011;11081;45.946;6.140;2023-09-07T03:05:27;7.18;;;5.15;;
21837;SDS011;11081;45.946;6.140;2023-09-07T03:07:56;9.38;;;5.60;;
21837;SDS011;11081;45.946;6.140;2023-09-07T03:10:24;6.25;;;5.47;;
21837;SDS011;11081;45.946;6.140;2023-09-07T03:12:53;6.80;;;4.90;;
21837;SDS011;11081;45.946;6.140;2023-09-07T03:15:21;8.13;;;5.20;;
21837;SDS011;11081;45.946;6.140;2023-09-07T03:17:49;7.43;;;5.22;;
21837;SDS011;11081;45.946;6.140;2023-09-07T03:20:17;7.30;;;5.03;;
21837;SDS011;11081;45.946;6.140;2023-09-07T03:22:49;8.32;;;5.25;;
21837;SDS011;11081;45.946;6.140;2023-09-07T03:25:18;9.27;;;6.00;;
21837;SDS011;11081;45.946;6.140;2023-09-07T03:27:47;11.13;;;5.35;;
21837;SDS011;11081;45.946;6.140;2023-09-07T03:30:15;8.70;;;5.55;;
21837;SDS011;11081;45.946;6.140;2023-09-07T03:32:43;7.13;;;5.68;;
21837;SDS011;11081;45.946;6.140;2023-09-07T03:35:13;6.78;;;5.43;;
21837;SDS011;11081;45.946;6.140;2023-09-07T03:37:42;9.10;;;5.18;;
21837;SDS011;11081;45.946;6.140;2023-09-07T03:40:10;8.48;;;5.53;;
21837;SDS011;11081;45.946;6.140;2023-09-07T03:42:40;8.05;;;5.43;;
21837;SDS011;11081;45.946;6.140;2023-09-07T03:45:10;6.75;;;5.25;;
21837;SDS011;11081;45.946;6.140;2023-09-07T03:47:38;6.88;;;5.68;;
21837;SDS011;11081;45.946;6.140;2023-09-07T03:50:07;6.88;;;5.05;;
21837;SDS011;11081;45.946;6.140;2023-09-07T03:52:36;10.80;;;6.13;;
21837;SDS011;11081;45.946;6.140;2023-09-07T03:55:06;7.40;;;5.20;;
21837;SDS011;11081;45.946;6.140;2023-09-07T03:57:36;8.05;;;5.30;;
21837;SDS011;11081;45.946;6.140;2023-09-07T04:00:06;9.15;;;5.22;;
21837;SDS011;11081;45.946;6.140;2023-09-07T04:02:45;7.10;;;5.30;;
21837;SDS011;11081;45.946;6.140;2023-09-07T04:05:14;6.20;;;4.78;;
21837;SDS011;11081;45.946;6.140;2023-09-07T04:07:42;6.32;;;4.97;;
21837;SDS011;11081;45.946;6.140;2023-09-07T04:10:10;7.07;;;4.65;;
21837;SDS011;11081;45.946;6.140;2023-09-07T04:12:38;8.30;;;5.22;;
21837;SDS011;11081;45.946;6.140;2023-09-07T04:15:08;8.98;;;5.53;;
21837;SDS011;11081;45.946;6.140;2023-09-07T04:17:37;7.22;;;5.30;;
21837;SDS011;11081;45.946;6.140;2023-09-07T04:20:08;8.02;;;5.43;;
21837;SDS011;11081;45.946;6.140;2023-09-07T04:22:38;8.13;;;5.68;;
21837;SDS011;11081;45.946;6.140;2023-09-07T04:25:07;7.15;;;5.30;;
21837;SDS011;11081;45.946;6.140;2023-09-07T04:27:35;6.13;;;4.90;;
21837;SDS011;11081;45.946;6.140;2023-09-07T04:30:05;7.95;;;5.35;;
21837;SDS011;11081;45.946;6.140;2023-09-07T04:32:37;7.32;;;5.20;;
21837;SDS011;11081;45.946;6.140;2023-09-07T04:35:06;7.22;;;5.38;;
21837;SDS011;11081;45.946;6.140;2023-09-07T04:37:35;11.93;;;5.93;;
21837;SDS011;11081;45.946;6.140;2023-09-07T04:40:05;6.85;;;5.35;;
21837;SDS011;11081;45.946;6.140;2023-09-07T04:42:34;10.88;;;5.30;;
21837;SDS011;11081;45.946;6.140;2023-09-07T04:45:02;8.75;;;5.45;;
21837;SDS011;11081;45.946;6.140;2023-09-07T04:47:32;7.75;;;5.18;;
21837;SDS011;11081;45.946;6.140;2023-09-07T04:50:03;6.93;;;5.28;;
21837;SDS011;11081;45.946;6.140;2023-09-07T04:52:33;7.53;;;5.30;;
21837;SDS011;11081;45.946;6.140;2023-09-07T04:55:01;6.18;;;5.45;;
21837;SDS011;11081;45.946;6.140;2023-09-07T04:57:30;7.53;;;5.35;;
21837;SDS011;11081;45.946;6.140;2023-09-07T04:59:58;6.80;;;5.30;;
21837;SDS011;11081;45.946;6.140;2023-09-07T05:02:27;8.57;;;5.60;;
21837;SDS011;11081;45.946;6.140;2023-09-07T05:04:56;9.63;;;5.60;;
21837;SDS011;11081;45.946;6.140;2023-09-07T05:07:24;8.80;;;5.53;;
21837;SDS011;11081;45.946;6.140;2023-09-07T05:09:52;6.13;;;5.53;;
21837;SDS011;11081;45.946;6.140;2023-09-07T05:12:20;8.93;;;4.95;;
21837;SDS011;11081;45.946;6.140;2023-09-07T05:14:48;7.15;;;5.28;;
21837;SDS011;11081;45.946;6.140;2023-09-07T05:17:16;7.93;;;5.90;;
21837;SDS011;11081;45.946;6.140;2023-09-07T05:19:44;6.15;;;5.25;;
21837;SDS011;11081;45.946;6.140;2023-09-07T05:22:14;9.02;;;5.68;;
21837;SDS011;11081;45.946;6.140;2023-09-07T05:24:42;9.07;;;5.15;;
21837;SDS011;11081;45.946;6.140;2023-09-07T05:27:13;5.90;;;5.22;;
21837;SDS011;11081;45.946;6.140;2023-09-07T05:29:41;7.88;;;5.60;;
21837;SDS011;11081;45.946;6.140;2023-09-07T05:32:09;8.95;;;5.75;;
21837;SDS011;11081;45.946;6.140;2023-09-07T05:34:37;7.82;;;5.53;;
21837;SDS011;11081;45.946;6.140;2023-09-07T05:37:06;7.88;;;5.60;;
21837;SDS011;11081;45.946;6.140;2023-09-07T05:39:36;7.88;;;5.38;;
21837;SDS011;11081;45.946;6.140;2023-09-07T05:42:04;7.13;;;5.85;;
21837;SDS011;11081;45.946;6.140;2023-09-07T05:44:32;6.05;;;5.30;;
21837;SDS011;11081;45.946;6.140;2023-09-07T05:47:01;11.15;;;5.47;;
21837;SDS011;11081;45.946;6.140;2023-09-07T05:49:30;7.30;;;5.70;;
21837;SDS011;11081;45.946;6.140;2023-09-07T05:51:58;6.47;;;5.25;;
21837;SDS011;11081;45.946;6.140;2023-09-07T05:54:26;7.45;;;5.68;;
21837;SDS011;11081;45.946;6.140;2023-09-07T05:56:56;7.65;;;5.60;;
21837;SDS011;11081;45.946;6.140;2023-09-07T05:59:24;8.93;;;5.25;;
21837;SDS011;11081;45.946;6.140;2023-09-07T06:01:52;7.60;;;5.60;;
21837;SDS011;11081;45.946;6.140;2023-09-07T06:04:20;8.15;;;5.30;;
21837;SDS011;11081;45.946;6.140;2023-09-07T06:06:49;8.43;;;5.53;;
21837;SDS011;11081;45.946;6.140;2023-09-07T06:09:17;8.80;;;5.57;;
21837;SDS011;11081;45.946;6.140;2023-09-07T06:11:45;5.90;;;5.00;;
21837;SDS011;11081;45.946;6.140;2023-09-07T06:14:15;8.52;;;5.82;;
21837;SDS011;11081;45.946;6.140;2023-09-07T06:16:43;7.63;;;5.47;;
21837;SDS011;11081;45.946;6.140;2023-09-07T06:19:11;7.70;;;5.60;;
21837;SDS011;11081;45.946;6.140;2023-09-07T06:21:39;6.85;;;5.50;;
21837;SDS011;11081;45.946;6.140;2023-09-07T06:24:07;8.57;;;6.03;;
21837;SDS011;11081;45.946;6.140;2023-09-07T06:26:35;6.43;;;5.47;;
21837;SDS011;11081;45.946;6.140;2023-09-07T06:29:04;12.95;;;5.95;;
21837;SDS011;11081;45.946;6.140;2023-09-07T06:31:33;10.60;;;5.65;;
21837;SDS011;11081;45.946;6.140;2023-09-07T06:34:02;8.95;;;5.88;;
21837;SDS011;11081;45.946;6.140;2023-09-07T06:36:30;8.65;;;6.25;;
21837;SDS011;11081;45.946;6.140;2023-09-07T06:39:14;9.80;;;6.05;;
21837;SDS011;11081;45.946;6.140;2023-09-07T06:41:45;14.93;;;6.90;;
21837;SDS011;11081;45.946;6.140;2023-09-07T06:44:16;13.52;;;6.38;;
21837;SDS011;11081;45.946;6.140;2023-09-07T06:46:46;13.20;;;6.43;;
21837;SDS011;11081;45.946;6.140;2023-09-07T06:49:17;11.85;;;5.95;;
21837;SDS011;11081;45.946;6.140;2023-09-07T06:51:45;8.07;;;6.00;;
21837;SDS011;11081;45.946;6.140;2023-09-07T06:54:13;11.52;;;5.45;;
21837;SDS011;11081;45.946;6.140;2023-09-07T06:56:41;12.80;;;5.90;;
21837;SDS011;11081;45.946;6.140;2023-09-07T06:59:10;7.50;;;5.35;;
21837;SDS011;11081;45.946;6.140;2023-09-07T07:01:38;9.85;;;5.68;;
21837;SDS011;11081;45.946;6.140;2023-09-07T07:04:07;8.43;;;6.00;;
21837;SDS011;11081;45.946;6.140;2023-09-07T07:06:36;9.18;;;5.88;;
21837;SDS011;11081;45.946;6.140;2023-09-07T07:09:05;10.25;;;6.28;;
21837;SDS011;11081;45.946;6.140;2023-09-07T07:11:33;8.00;;;5.97;;
21837;SDS011;11081;45.946;6.140;2023-09-07T07:14:01;8.13;;;5.95;;
21837;SDS011;11081;45.946;6.140;2023-09-07T07:16:29;10.55;;;6.07;;
21837;SDS011;11081;45.946;6.140;2023-09-07T07:18:58;8.25;;;6.30;;
21837;SDS011;11081;45.946;6.140;2023-09-07T07:21:27;13.15;;;6.25;;
21837;SDS011;11081;45.946;6.140;2023-09-07T07:23:56;11.32;;;6.38;;
21837;SDS011;11081;45.946;6.140;2023-09-07T07:26:24;9.50;;;5.47;;
21837;SDS011;11081;45.946;6.140;2023-09-07T07:28:52;7.03;;;5.80;;
21837;SDS011;11081;45.946;6.140;2023-09-07T07:31:20;9.20;;;5.90;;
21837;SDS011;11081;45.946;6.140;2023-09-07T07:33:48;9.15;;;5.57;;
21837;SDS011;11081;45.946;6.140;2023-09-07T07:36:17;11.02;;;6.10;;
21837;SDS011;11081;45.946;6.140;2023-09-07T07:38:46;9.68;;;5.38;;
21837;SDS011;11081;45.946;6.140;2023-09-07T07:41:15;7.38;;;5.95;;
21837;SDS011;11081;45.946;6.140;2023-09-07T07:43:43;7.20;;;5.63;;
21837;SDS011;11081;45.946;6.140;2023-09-07T07:46:11;10.48;;;5.75;;
21837;SDS011;11081;45.946;6.140;2023-09-07T07:48:43;8.18;;;5.95;;
21837;SDS011;11081;45.946;6.140;2023-09-07T07:51:11;6.93;;;5.72;;
21837;SDS011;11081;45.946;6.140;2023-09-07T07:53:41;7.68;;;5.97;;
21837;SDS011;11081;45.946;6.140;2023-09-07T07:56:18;11.13;;;5.88;;
21837;SDS011;11081;45.946;6.140;2023-09-07T07:58:48;8.30;;;5.80;;
21837;SDS011;11081;45.946;6.140;2023-09-07T08:01:18;9.98;;;6.25;;
21837;SDS011;11081;45.946;6.140;2023-09-07T08:03:50;7.72;;;5.28;;
21837;SDS011;11081;45.946;6.140;2023-09-07T08:06:18;6.82;;;5.70;;
21837;SDS011;11081;45.946;6.140;2023-09-07T08:08:47;10.30;;;6.20;;
21837;SDS011;11081;45.946;6.140;2023-09-07T08:11:15;8.85;;;6.20;;
21837;SDS011;11081;45.946;6.140;2023-09-07T08:13:45;10.40;;;6.43;;
21837;SDS011;11081;45.946;6.140;2023-09-07T08:16:13;8.30;;;5.90;;
21837;SDS011;11081;45.946;6.140;2023-09-07T08:18:42;10.20;;;6.72;;
21837;SDS011;11081;45.946;6.140;2023-09-07T08:21:13;9.85;;;6.43;;
21837;SDS011;11081;45.946;6.140;2023-09-07T08:23:42;9.82;;;6.63;;
21837;SDS011;11081;45.946;6.140;2023-09-07T08:26:11;11.65;;;7.10;;
21837;SDS011;11081;45.946;6.140;2023-09-07T08:28:42;10.43;;;6.78;;
21837;SDS011;11081;45.946;6.140;2023-09-07T08:31:14;13.05;;;7.30;;
21837;SDS011;11081;45.946;6.140;2023-09-07T08:33:48;8.05;;;6.60;;
21837;SDS011;11081;45.946;6.140;2023-09-07T08:36:17;12.00;;;7.32;;
21837;SDS011;11081;45.946;6.140;2023-09-07T08:38:49;8.95;;;6.53;;
21837;SDS011;11081;45.946;6.140;2023-09-07T08:41:20;10.07;;;7.18;;
21837;SDS011;11081;45.946;6.140;2023-09-07T08:43:49;12.75;;;6.50;;
21837;SDS011;11081;45.946;6.140;2023-09-07T08:46:22;8.18;;;6.18;;
21837;SDS011;11081;45.946;6.140;2023-09-07T08:48:51;10.27;;;6.55;;
21837;SDS011;11081;45.946;6.140;2023-09-07T08:51:23;15.38;;;6.95;;
21837;SDS011;11081;45.946;6.140;2023-09-07T08:53:54;9.25;;;6.88;;
21837;SDS011;11081;45.946;6.140;2023-09-07T08:56:23;8.88;;;6.95;;
21837;SDS011;11081;45.946;6.140;2023-09-07T08:58:51;8.75;;;6.80;;
21837;SDS011;11081;45.946;6.140;2023-09-07T09:01:20;9.80;;;6.88;;
21837;SDS011;11081;45.946;6.140;2023-09-07T09:03:50;8.80;;;6.60;;
21837;SDS011;11081;45.946;6.140;2023-09-07T09:06:19;7.93;;;6.03;;
21837;SDS011;11081;45.946;6.140;2023-09-07T09:08:49;7.80;;;5.95;;
21837;SDS011;11081;45.946;6.140;2023-09-07T09:11:19;10.52;;;6.80;;
21837;SDS011;11081;45.946;6.140;2023-09-07T09:13:48;9.20;;;6.70;;
21837;SDS011;11081;45.946;6.140;2023-09-07T09:16:16;9.15;;;6.88;;
21837;SDS011;11081;45.946;6.140;2023-09-07T09:18:49;9.98;;;6.68;;
21837;SDS011;11081;45.946;6.140;2023-09-07T09:21:19;8.18;;;6.45;;
21837;SDS011;11081;45.946;6.140;2023-09-07T09:23:48;11.23;;;7.20;;
21837;SDS011;11081;45.946;6.140;2023-09-07T09:26:17;9.65;;;6.45;;
21837;SDS011;11081;45.946;6.140;2023-09-07T09:28:46;12.80;;;6.68;;
21837;SDS011;11081;45.946;6.140;2023-09-07T09:31:17;10.65;;;6.88;;
21837;SDS011;11081;45.946;6.140;2023-09-07T09:33:47;9.77;;;7.13;;
21837;SDS011;11081;45.946;6.140;2023-09-07T09:36:18;11.25;;;6.78;;
21837;SDS011;11081;45.946;6.140;2023-09-07T09:38:47;9.98;;;6.38;;
21837;SDS011;11081;45.946;6.140;2023-09-07T09:41:16;9.65;;;6.50;;
21837;SDS011;11081;45.946;6.140;2023-09-07T09:43:45;11.35;;;6.95;;
21837;SDS011;11081;45.946;6.140;2023-09-07T09:46:16;12.95;;;6.80;;
21837;SDS011;11081;45.946;6.140;2023-09-07T09:48:44;9.80;;;6.55;;
21837;SDS011;11081;45.946;6.140;2023-09-07T09:51:14;19.95;;;7.53;;
21837;SDS011;11081;45.946;6.140;2023-09-07T09:53:43;11.20;;;6.53;;
21837;SDS011;11081;45.946;6.140;2023-09-07T09:56:12;14.48;;;6.80;;
21837;SDS011;11081;45.946;6.140;2023-09-07T09:58:40;11.57;;;5.70;;
21837;SDS011;11081;45.946;6.140;2023-09-07T10:01:08;7.55;;;5.53;;
21837;SDS011;11081;45.946;6.140;2023-09-07T10:03:41;12.07;;;5.68;;
21837;SDS011;11081;45.946;6.140;2023-09-07T10:06:19;9.05;;;6.18;;
21837;SDS011;11081;45.946;6.140;2023-09-07T10:08:52;11.95;;;6.15;;
21837;SDS011;11081;45.946;6.140;2023-09-07T10:11:26;6.72;;;5.47;;
21837;SDS011;11081;45.946;6.140;2023-09-07T10:13:57;13.30;;;5.95;;
21837;SDS011;11081;45.946;6.140;2023-09-07T10:16:25;7.00;;;5.80;;
21837;SDS011;11081;45.946;6.140;2023-09-07T10:18:54;10.80;;;6.30;;
21837;SDS011;11081;45.946;6.140;2023-09-07T10:21:25;6.88;;;6.18;;
21837;SDS011;11081;45.946;6.140;2023-09-07T10:23:53;11.15;;;5.95;;
21837;SDS011;11081;45.946;6.140;2023-09-07T10:26:21;11.57;;;6.30;;
21837;SDS011;11081;45.946;6.140;2023-09-07T10:28:58;8.68;;;6.05;;
21837;SDS011;11081;45.946;6.140;2023-09-07T10:31:30;7.60;;;5.85;;
21837;SDS011;11081;45.946;6.140;2023-09-07T10:34:18;8.93;;;5.65;;
21837;SDS011;11081;45.946;6.140;2023-09-07T10:36:47;8.57;;;5.15;;
21837;SDS011;11081;45.946;6.140;2023-09-07T10:39:17;7.25;;;5.63;;
21837;SDS011;11081;45.946;6.140;2023-09-07T10:41:45;8.82;;;5.80;;
21837;SDS011;11081;45.946;6.140;2023-09-07T10:44:14;9.60;;;5.90;;
21837;SDS011;11081;45.946;6.140;2023-09-07T10:46:42;10.55;;;5.90;;
21837;SDS011;11081;45.946;6.140;2023-09-07T10:49:11;7.35;;;5.40;;
21837;SDS011;11081;45.946;6.140;2023-09-07T10:51:40;6.10;;;5.05;;
21837;SDS011;11081;45.946;6.140;2023-09-07T10:54:15;8.75;;;5.40;;
21837;SDS011;11081;45.946;6.140;2023-09-07T10:56:44;9.60;;;5.30;;
21837;SDS011;11081;45.946;6.140;2023-09-07T10:59:13;12.73;;;5.55;;
21837;SDS011;11081;45.946;6.140;2023-09-07T11:01:41;7.85;;;5.18;;
21837;SDS011;11081;45.946;6.140;2023-09-07T11:04:09;9.15;;;5.43;;
21837;SDS011;11081;45.946;6.140;2023-09-07T11:06:39;6.78;;;4.68;;
21837;SDS011;11081;45.946;6.140;2023-09-07T11:09:08;6.57;;;5.20;;
21837;SDS011;11081;45.946;6.140;2023-09-07T11:11:39;7.15;;;5.20;;
21837;SDS011;11081;45.946;6.140;2023-09-07T11:14:07;8.13;;;4.50;;
21837;SDS011;11081;45.946;6.140;2023-09-07T11:16:35;6.88;;;4.85;;
21837;SDS011;11081;45.946;6.140;2023-09-07T11:19:03;5.55;;;4.60;;
21837;SDS011;11081;45.946;6.140;2023-09-07T11:21:32;5.40;;;4.35;;
21837;SDS011;11081;45.946;6.140;2023-09-07T11:24:03;15.25;;;4.80;;
21837;SDS011;11081;45.946;6.140;2023-09-07T11:26:41;5.75;;;4.60;;
21837;SDS011;11081;45.946;6.140;2023-09-07T11:29:13;8.00;;;4.70;;
21837;SDS011;11081;45.946;6.140;2023-09-07T11:31:41;7.13;;;4.25;;
21837;SDS011;11081;45.946;6.140;2023-09-07T11:34:10;8.38;;;4.80;;
21837;SDS011;11081;45.946;6.140;2023-09-07T11:36:39;12.18;;;4.72;;
21837;SDS011;11081;45.946;6.140;2023-09-07T11:39:07;8.50;;;4.78;;
21837;SDS011;11081;45.946;6.140;2023-09-07T11:41:39;13.32;;;4.88;;
21837;SDS011;11081;45.946;6.140;2023-09-07T11:44:09;9.27;;;4.88;;
21837;SDS011;11081;45.946;6.140;2023-09-07T11:46:38;7.03;;;4.40;;
21837;SDS011;11081;45.946;6.140;2023-09-07T11:49:07;7.10;;;4.75;;
21837;SDS011;11081;45.946;6.140;2023-09-07T11:51:36;8.45;;;4.80;;
21837;SDS011;11081;45.946;6.140;2023-09-07T11:54:04;7.93;;;4.60;;
21837;SDS011;11081;45.946;6.140;2023-09-07T11:56:33;7.85;;;4.57;;
21837;SDS011;11081;45.946;6.140;2023-09-07T11:59:05;6.72;;;4.90;;
21837;SDS011;11081;45.946;6.140;2023-09-07T12:01:36;8.02;;;4.53;;
21837;SDS011;11081;45.946;6.140;2023-09-07T12:04:06;7.47;;;3.90;;
21837;SDS011;11081;45.946;6.140;2023-09-07T12:06:34;9.50;;;4.60;;
21837;SDS011;11081;45.946;6.140;2023-09-07T12:09:02;7.65;;;4.40;;
21837;SDS011;11081;45.946;6.140;2023-09-07T12:11:33;6.65;;;3.90;;
21837;SDS011;11081;45.946;6.140;2023-09-07T12:14:01;4.05;;;3.58;;
21837;SDS011;11081;45.946;6.140;2023-09-07T12:16:30;5.25;;;3.90;;
21837;SDS011;11081;45.946;6.140;2023-09-07T12:19:00;6.45;;;4.10;;
21837;SDS011;11081;45.946;6.140;2023-09-07T12:21:28;6.95;;;4.10;;
21837;SDS011;11081;45.946;6.140;2023-09-07T12:23:56;7.93;;;3.80;;
21837;SDS011;11081;45.946;6.140;2023-09-07T12:26:24;5.35;;;4.30;;
21837;SDS011;11081;45.946;6.140;2023-09-07T12:28:52;4.57;;;3.72;;
21837;SDS011;11081;45.946;6.140;2023-09-07T12:31:20;10.43;;;4.20;;
21837;SDS011;11081;45.946;6.140;2023-09-07T12:33:48;7.07;;;4.00;;
21837;SDS011;11081;45.946;6.140;2023-09-07T12:36:17;6.03;;;3.85;;
21837;SDS011;11081;45.946;6.140;2023-09-07T12:38:48;7.10;;;4.07;;
21837;SDS011;11081;45.946;6.140;2023-09-07T12:41:16;3.92;;;3.45;;
21837;SDS011;11081;45.946;6.140;2023-09-07T12:43:44;7.22;;;4.20;;
21837;SDS011;11081;45.946;6.140;2023-09-07T12:46:12;7.40;;;3.97;;
21837;SDS011;11081;45.946;6.140;2023-09-07T12:48:40;6.20;;;3.47;;
21837;SDS011;11081;45.946;6.140;2023-09-07T12:51:10;6.13;;;3.90;;
21837;SDS011;11081;45.946;6.140;2023-09-07T12:53:39;5.57;;;3.83;;
21837;SDS011;11081;45.946;6.140;2023-09-07T12:56:07;10.93;;;4.50;;
21837;SDS011;11081;45.946;6.140;2023-09-07T12:58:35;5.32;;;3.80;;
21837;SDS011;11081;45.946;6.140;2023-09-07T13:01:04;4.78;;;3.58;;
21837;SDS011;11081;45.946;6.140;2023-09-07T13:03:32;10.77;;;3.50;;
21837;SDS011;11081;45.946;6.140;2023-09-07T13:06:00;8.07;;;3.42;;
21837;SDS011;11081;45.946;6.140;2023-09-07T13:08:29;8.18;;;3.92;;
21837;SDS011;11081;45.946;6.140;2023-09-07T13:10:58;7.13;;;4.07;;
21837;SDS011;11081;45.946;6.140;2023-09-07T13:13:26;8.43;;;3.25;;
21837;SDS011;11081;45.946;6.140;2023-09-07T13:15:56;5.13;;;3.33;;
21837;SDS011;11081;45.946;6.140;2023-09-07T13:18:24;3.97;;;3.42;;
21837;SDS011;11081;45.946;6.140;2023-09-07T13:20:52;5.20;;;3.40;;
21837;SDS011;11081;45.946;6.140;2023-09-07T13:23:25;5.75;;;3.67;;
21837;SDS011;11081;45.946;6.140;2023-09-07T13:25:54;6.15;;;3.67;;
21837;SDS011;11081;45.946;6.140;2023-09-07T13:28:23;8.68;;;3.30;;
21837;SDS011;11081;45.946;6.140;2023-09-07T13:30:51;10.82;;;3.90;;
21837;SDS011;11081;45.946;6.140;2023-09-07T13:33:19;5.20;;;3.72;;
21837;SDS011;11081;45.946;6.140;2023-09-07T13:35:47;7.95;;;4.22;;
21837;SDS011;11081;45.946;6.140;2023-09-07T13:38:15;6.03;;;4.10;;
21837;SDS011;11081;45.946;6.140;2023-09-07T13:40:43;7.50;;;4.28;;
21837;SDS011;11081;45.946;6.140;2023-09-07T13:43:11;8.23;;;4.13;;
21837;SDS011;11081;45.946;6.140;2023-09-07T13:45:41;5.10;;;3.80;;
21837;SDS011;11081;45.946;6.140;2023-09-07T13:48:10;7.03;;;4.53;;
21837;SDS011;11081;45.946;6.140;2023-09-07T13:50:38;6.07;;;3.80;;
21837;SDS011;11081;45.946;6.140;2023-09-07T13:53:06;6.18;;;3.65;;
21837;SDS011;11081;45.946;6.140;2023-09-07T13:55:34;5.10;;;4.10;;
21837;SDS011;11081;45.946;6.140;2023-09-07T13:58:06;4.75;;;3.63;;
21837;SDS011;11081;45.946;6.140;2023-09-07T14:00:34;7.35;;;4.00;;
21837;SDS011;11081;45.946;6.140;2023-09-07T14:03:03;7.65;;;3.85;;
21837;SDS011;11081;45.946;6.140;2023-09-07T14:05:31;42.22;;;4.85;;
21837;SDS011;11081;45.946;6.140;2023-09-07T14:07:59;6.90;;;4.30;;
21837;SDS011;11081;45.946;6.140;2023-09-07T14:10:27;7.25;;;4.10;;
21837;SDS011;11081;45.946;6.140;2023-09-07T14:12:55;7.05;;;4.13;;
21837;SDS011;11081;45.946;6.140;2023-09-07T14:15:23;6.18;;;3.72;;
21837;SDS011;11081;45.946;6.140;2023-09-07T14:17:51;7.63;;;4.03;;
21837;SDS011;11081;45.946;6.140;2023-09-07T14:20:21;5.70;;;3.90;;
21837;SDS011;11081;45.946;6.140;2023-09-07T14:22:49;4.40;;;3.38;;
21837;SDS011;11081;45.946;6.140;2023-09-07T14:25:17;5.38;;;3.83;;
21837;SDS011;11081;45.946;6.140;2023-09-07T14:27:48;6.20;;;3.85;;
21837;SDS011;11081;45.946;6.140;2023-09-07T14:30:17;7.40;;;3.63;;
21837;SDS011;11081;45.946;6.140;2023-09-07T14:32:45;5.35;;;3.92;;
21837;SDS011;11081;45.946;6.140;2023-09-07T14:35:15;6.72;;;3.47;;
21837;SDS011;11081;45.946;6.140;2023-09-07T14:37:44;8.18;;;3.88;;
21837;SDS011;11081;45.946;6.140;2023-09-07T14:40:12;5.45;;;4.00;;
21837;SDS011;11081;45.946;6.140;2023-09-07T14:42:40;7.30;;;3.72;;
21837;SDS011;11081;45.946;6.140;2023-09-07T14:45:09;7.75;;;3.50;;
21837;SDS011;11081;45.946;6.140;2023-09-07T14:47:37;6.15;;;3.72;;
21837;SDS011;11081;45.946;6.140;2023-09-07T14:50:06;6.97;;;3.70;;
21837;SDS011;11081;45.946;6.140;2023-09-07T14:52:35;11.05;;;4.25;;
21837;SDS011;11081;45.946;6.140;2023-09-07T14:55:08;5.70;;;3.30;;
21837;SDS011;11081;45.946;6.140;2023-09-07T14:57:36;7.60;;;3.38;;